Hovedside
METAR-TAF:

METAR-TAF

Lufthavner :

Pago Pago, USAs ytre småøyer

breddegrad: 14-20S, lengdegrad: 170-43W, høyde over havet: 3 m

Gjeldene værobservasjon

Denne rapporten ble laget for 15 minutter siden, klokken 10:50 UTC
Vind 17 kt fra Øst med vindkast opp mot 21 kt
Temperatur 27°C
Luftfuktighet 74%
Trykk 1013 hPa
Sikt: 16.1 km
Spredte skyer i en høyde av 2200 ft
Spredte skyer i en høyde av 4000 ft

METAR: NSTU 231050Z 10017G21KT 10SM SCT022 SCT040 27/22 A2990 RMK SLP125 T02680217 403050266

Tid: 00:05 (11:05 UTC)

Varsel

Denne rapporten ble laget for 5 timer og 32 minutter siden, klokken 05:33 UTC
Varsel gyldig fra 23. klokken 06 UTC til 24. klokken 06 UTC
Vind 15 kt fra Øst med vindkast opp mot 23 kt
Sikt: 10 km
Spredte skyer i en høyde av 2500 ft
Spredte skyer i en høyde av 4000 ft

TAF: NSTU 230533Z 2306/2406 10015G23KT P6SM SCT025 SCT040

Værobservasjoner og værvarsel for over 4000 flyplasser (METAR- og TAF-rapporter).

Tilgjengelige stasjoner er representert av de røde og gule prikkene på kartet.

Hold musepekeren over prikken for å se navnet på stasjonen.

Klikk så for å se værobservasjoner og -varsler.

For å forandre kartet kan du klikke på den grønne knappen med svart kryss for å zoome inn, på den grønne knappen med strek for å zoome ut, eller på de grønne pilene for å se tilstøtende kart.


METAR-TAF: